sensor_id;sensor_type;location;lat;lon;timestamp;temperature;humidity
65598;SHT31;52267;51.984;20.956;2023-05-02T00:02:17;8.32;59.16
65598;SHT31;52267;51.984;20.956;2023-05-02T00:04:45;8.29;59.18
65598;SHT31;52267;51.984;20.956;2023-05-02T00:07:12;8.28;59.21
65598;SHT31;52267;51.984;20.956;2023-05-02T00:09:39;8.27;59.29
65598;SHT31;52267;51.984;20.956;2023-05-02T00:12:06;8.24;59.28
65598;SHT31;52267;51.984;20.956;2023-05-02T00:14:33;8.23;59.47
65598;SHT31;52267;51.984;20.956;2023-05-02T00:17:00;8.22;59.74
65598;SHT31;52267;51.984;20.956;2023-05-02T00:19:27;8.19;59.91
65598;SHT31;52267;51.984;20.956;2023-05-02T00:21:54;8.16;59.90
65598;SHT31;52267;51.984;20.956;2023-05-02T00:24:21;8.15;60.06
65598;SHT31;52267;51.984;20.956;2023-05-02T00:26:48;8.09;60.51
65598;SHT31;52267;51.984;20.956;2023-05-02T00:29:16;8.04;60.55
65598;SHT31;52267;51.984;20.956;2023-05-02T00:31:43;8.02;60.78
65598;SHT31;52267;51.984;20.956;2023-05-02T00:34:10;7.99;60.92
65598;SHT31;52267;51.984;20.956;2023-05-02T00:36:37;7.92;61.16
65598;SHT31;52267;51.984;20.956;2023-05-02T00:39:04;7.87;61.32
65598;SHT31;52267;51.984;20.956;2023-05-02T00:41:31;7.80;61.27
65598;SHT31;52267;51.984;20.956;2023-05-02T00:43:58;7.78;61.33
65598;SHT31;52267;51.984;20.956;2023-05-02T00:46:25;7.75;61.37
65598;SHT31;52267;51.984;20.956;2023-05-02T00:48:52;7.75;61.22
65598;SHT31;52267;51.984;20.956;2023-05-02T00:51:19;7.74;61.56
65598;SHT31;52267;51.984;20.956;2023-05-02T00:53:46;7.72;61.74
65598;SHT31;52267;51.984;20.956;2023-05-02T00:56:13;7.70;61.79
65598;SHT31;52267;51.984;20.956;2023-05-02T00:58:40;7.68;62.16
65598;SHT31;52267;51.984;20.956;2023-05-02T01:09:38;7.58;62.38
65598;SHT31;52267;51.984;20.956;2023-05-02T01:12:20;7.58;62.31
65598;SHT31;52267;51.984;20.956;2023-05-02T01:15:26;7.53;62.57
65598;SHT31;52267;51.984;20.956;2023-05-02T01:17:53;7.50;62.43
65598;SHT31;52267;51.984;20.956;2023-05-02T01:20:23;7.48;62.43
65598;SHT31;52267;51.984;20.956;2023-05-02T01:22:54;7.45;62.40
65598;SHT31;52267;51.984;20.956;2023-05-02T01:28:20;7.45;62.81
65598;SHT31;52267;51.984;20.956;2023-05-02T01:31:02;7.45;62.63
65598;SHT31;52267;51.984;20.956;2023-05-02T01:33:29;7.45;62.85
65598;SHT31;52267;51.984;20.956;2023-05-02T01:35:58;7.45;62.59
65598;SHT31;52267;51.984;20.956;2023-05-02T01:38:28;7.44;62.97
65598;SHT31;52267;51.984;20.956;2023-05-02T01:40:55;7.45;62.93
65598;SHT31;52267;51.984;20.956;2023-05-02T01:43:28;7.44;63.39
65598;SHT31;52267;51.984;20.956;2023-05-02T01:45:58;7.44;63.42
65598;SHT31;52267;51.984;20.956;2023-05-02T01:48:28;7.45;63.31
65598;SHT31;52267;51.984;20.956;2023-05-02T01:50:55;7.46;63.85
65598;SHT31;52267;51.984;20.956;2023-05-02T01:53:24;7.44;64.47
65598;SHT31;52267;51.984;20.956;2023-05-02T01:55:54;7.45;63.70
65598;SHT31;52267;51.984;20.956;2023-05-02T01:58:25;7.46;63.72
65598;SHT31;52267;51.984;20.956;2023-05-02T02:00:55;7.47;63.92
65598;SHT31;52267;51.984;20.956;2023-05-02T02:03:27;7.47;63.69
65598;SHT31;52267;51.984;20.956;2023-05-02T02:05:57;7.49;63.39
65598;SHT31;52267;51.984;20.956;2023-05-02T02:08:25;7.52;63.51
65598;SHT31;52267;51.984;20.956;2023-05-02T02:10:59;7.54;63.50
65598;SHT31;52267;51.984;20.956;2023-05-02T02:13:31;7.55;63.54
65598;SHT31;52267;51.984;20.956;2023-05-02T02:16:03;7.55;63.44
65598;SHT31;52267;51.984;20.956;2023-05-02T02:18:34;7.53;63.95
65598;SHT31;52267;51.984;20.956;2023-05-02T02:21:05;7.47;64.90
65598;SHT31;52267;51.984;20.956;2023-05-02T02:23:35;7.42;65.18
65598;SHT31;52267;51.984;20.956;2023-05-02T02:26:04;7.39;65.38
65598;SHT31;52267;51.984;20.956;2023-05-02T02:28:36;7.33;65.29
65598;SHT31;52267;51.984;20.956;2023-05-02T02:31:03;7.28;66.05
65598;SHT31;52267;51.984;20.956;2023-05-02T02:33:30;7.27;65.41
65598;SHT31;52267;51.984;20.956;2023-05-02T02:36:06;7.25;65.76
65598;SHT31;52267;51.984;20.956;2023-05-02T02:38:45;7.22;66.39
65598;SHT31;52267;51.984;20.956;2023-05-02T02:41:20;7.18;66.26
65598;SHT31;52267;51.984;20.956;2023-05-02T02:44:09;7.17;66.18
65598;SHT31;52267;51.984;20.956;2023-05-02T02:52:56;7.17;65.49
65598;SHT31;52267;51.984;20.956;2023-05-02T03:01:08;7.09;67.03
65598;SHT31;52267;51.984;20.956;2023-05-02T03:03:41;7.04;67.22
65598;SHT31;52267;51.984;20.956;2023-05-02T03:06:12;6.99;67.70
65598;SHT31;52267;51.984;20.956;2023-05-02T03:08:42;6.95;68.30
65598;SHT31;52267;51.984;20.956;2023-05-02T03:11:09;6.90;68.63
65598;SHT31;52267;51.984;20.956;2023-05-02T03:13:37;6.86;69.03
65598;SHT31;52267;51.984;20.956;2023-05-02T03:18:46;6.82;68.62
65598;SHT31;52267;51.984;20.956;2023-05-02T03:21:12;6.78;69.78
65598;SHT31;52267;51.984;20.956;2023-05-02T03:23:39;6.75;69.70
65598;SHT31;52267;51.984;20.956;2023-05-02T03:26:06;6.75;69.64
65598;SHT31;52267;51.984;20.956;2023-05-02T03:28:33;6.76;69.52
65598;SHT31;52267;51.984;20.956;2023-05-02T03:31:00;6.77;69.46
65598;SHT31;52267;51.984;20.956;2023-05-02T03:33:27;6.78;69.32
65598;SHT31;52267;51.984;20.956;2023-05-02T03:35:55;6.78;70.09
65598;SHT31;52267;51.984;20.956;2023-05-02T03:38:22;6.78;70.38
65598;SHT31;52267;51.984;20.956;2023-05-02T03:40:49;6.79;70.33
65598;SHT31;52267;51.984;20.956;2023-05-02T03:43:16;6.81;70.04
65598;SHT31;52267;51.984;20.956;2023-05-02T03:45:42;6.83;69.52
65598;SHT31;52267;51.984;20.956;2023-05-02T03:48:09;6.83;70.15
65598;SHT31;52267;51.984;20.956;2023-05-02T03:50:38;6.85;70.10
65598;SHT31;52267;51.984;20.956;2023-05-02T03:53:05;6.89;69.90
65598;SHT31;52267;51.984;20.956;2023-05-02T03:55:37;6.91;70.65
65598;SHT31;52267;51.984;20.956;2023-05-02T03:58:06;6.93;70.98
65598;SHT31;52267;51.984;20.956;2023-05-02T04:00:33;6.94;70.57
65598;SHT31;52267;51.984;20.956;2023-05-02T04:03:01;7.00;70.57
65598;SHT31;52267;51.984;20.956;2023-05-02T04:05:28;7.05;70.18
65598;SHT31;52267;51.984;20.956;2023-05-02T04:07:55;7.10;70.40
65598;SHT31;52267;51.984;20.956;2023-05-02T04:10:22;7.15;70.68
65598;SHT31;52267;51.984;20.956;2023-05-02T04:12:49;7.21;70.56
65598;SHT31;52267;51.984;20.956;2023-05-02T04:15:16;7.28;70.46
65598;SHT31;52267;51.984;20.956;2023-05-02T04:17:44;7.36;70.39
65598;SHT31;52267;51.984;20.956;2023-05-02T04:20:11;7.42;70.60
65598;SHT31;52267;51.984;20.956;2023-05-02T04:22:39;7.49;70.43
65598;SHT31;52267;51.984;20.956;2023-05-02T04:25:06;7.56;70.29
65598;SHT31;52267;51.984;20.956;2023-05-02T04:27:33;7.66;69.94
65598;SHT31;52267;51.984;20.956;2023-05-02T04:30:01;7.74;69.59
65598;SHT31;52267;51.984;20.956;2023-05-02T04:32:28;7.84;69.42
65598;SHT31;52267;51.984;20.956;2023-05-02T04:34:55;7.90;69.90
65598;SHT31;52267;51.984;20.956;2023-05-02T04:37:22;7.98;69.68
65598;SHT31;52267;51.984;20.956;2023-05-02T04:39:50;8.07;68.84
65598;SHT31;52267;51.984;20.956;2023-05-02T04:42:17;8.16;69.05
65598;SHT31;52267;51.984;20.956;2023-05-02T04:44:44;8.24;68.59
65598;SHT31;52267;51.984;20.956;2023-05-02T04:47:11;8.32;68.57
65598;SHT31;52267;51.984;20.956;2023-05-02T04:49:38;8.44;68.11
65598;SHT31;52267;51.984;20.956;2023-05-02T04:52:06;8.51;68.43
65598;SHT31;52267;51.984;20.956;2023-05-02T04:54:36;8.57;68.26
65598;SHT31;52267;51.984;20.956;2023-05-02T04:57:03;8.63;68.38
65598;SHT31;52267;51.984;20.956;2023-05-02T04:59:32;8.72;67.88
65598;SHT31;52267;51.984;20.956;2023-05-02T05:02:00;8.79;68.24
65598;SHT31;52267;51.984;20.956;2023-05-02T05:04:28;8.90;67.84
65598;SHT31;52267;51.984;20.956;2023-05-02T05:06:55;8.99;67.32
65598;SHT31;52267;51.984;20.956;2023-05-02T05:09:22;9.09;67.07
65598;SHT31;52267;51.984;20.956;2023-05-02T05:11:49;9.21;67.14
65598;SHT31;52267;51.984;20.956;2023-05-02T05:14:16;9.27;66.46
65598;SHT31;52267;51.984;20.956;2023-05-02T05:16:43;9.40;66.81
65598;SHT31;52267;51.984;20.956;2023-05-02T05:19:10;9.48;66.32
65598;SHT31;52267;51.984;20.956;2023-05-02T05:21:37;9.61;66.07
65598;SHT31;52267;51.984;20.956;2023-05-02T05:24:04;9.74;66.02
65598;SHT31;52267;51.984;20.956;2023-05-02T05:26:31;9.87;65.93
65598;SHT31;52267;51.984;20.956;2023-05-02T05:28:58;10.01;65.94
65598;SHT31;52267;51.984;20.956;2023-05-02T05:31:25;10.16;65.41
65598;SHT31;52267;51.984;20.956;2023-05-02T05:33:53;10.35;65.49
65598;SHT31;52267;51.984;20.956;2023-05-02T05:36:20;10.51;65.03
65598;SHT31;52267;51.984;20.956;2023-05-02T05:38:47;10.66;64.90
65598;SHT31;52267;51.984;20.956;2023-05-02T05:41:14;10.81;64.32
65598;SHT31;52267;51.984;20.956;2023-05-02T05:43:41;10.98;64.13
65598;SHT31;52267;51.984;20.956;2023-05-02T05:46:08;11.14;64.05
65598;SHT31;52267;51.984;20.956;2023-05-02T05:48:36;11.28;63.54
65598;SHT31;52267;51.984;20.956;2023-05-02T05:51:03;11.45;63.46
65598;SHT31;52267;51.984;20.956;2023-05-02T05:53:32;11.61;63.25
65598;SHT31;52267;51.984;20.956;2023-05-02T05:56:07;11.79;62.60
65598;SHT31;52267;51.984;20.956;2023-05-02T05:58:38;11.99;62.45
65598;SHT31;52267;51.984;20.956;2023-05-02T06:01:06;12.17;61.70
65598;SHT31;52267;51.984;20.956;2023-05-02T06:03:33;12.36;61.94
65598;SHT31;52267;51.984;20.956;2023-05-02T06:06:00;12.57;61.51
65598;SHT31;52267;51.984;20.956;2023-05-02T06:08:28;12.76;61.26
65598;SHT31;52267;51.984;20.956;2023-05-02T06:10:55;12.96;60.95
65598;SHT31;52267;51.984;20.956;2023-05-02T06:13:22;13.13;60.58
65598;SHT31;52267;51.984;20.956;2023-05-02T06:15:49;13.24;59.58
65598;SHT31;52267;51.984;20.956;2023-05-02T06:18:16;13.38;60.04
65598;SHT31;52267;51.984;20.956;2023-05-02T06:20:43;13.55;60.41
65598;SHT31;52267;51.984;20.956;2023-05-02T06:23:10;13.73;60.43
65598;SHT31;52267;51.984;20.956;2023-05-02T06:25:37;13.90;60.33
65598;SHT31;52267;51.984;20.956;2023-05-02T06:28:04;14.00;59.74
65598;SHT31;52267;51.984;20.956;2023-05-02T06:30:32;14.10;60.12
65598;SHT31;52267;51.984;20.956;2023-05-02T06:32:59;14.20;59.97
65598;SHT31;52267;51.984;20.956;2023-05-02T06:35:30;14.38;59.92
65598;SHT31;52267;51.984;20.956;2023-05-02T06:37:57;14.54;58.74
65598;SHT31;52267;51.984;20.956;2023-05-02T06:40:24;14.76;59.04
65598;SHT31;52267;51.984;20.956;2023-05-02T06:42:51;14.98;58.18
65598;SHT31;52267;51.984;20.956;2023-05-02T06:45:18;15.18;58.31
65598;SHT31;52267;51.984;20.956;2023-05-02T06:47:45;15.33;57.88
65598;SHT31;52267;51.984;20.956;2023-05-02T06:50:12;15.45;57.34
65598;SHT31;52267;51.984;20.956;2023-05-02T06:52:40;15.52;57.02
65598;SHT31;52267;51.984;20.956;2023-05-02T06:55:07;15.60;56.37
65598;SHT31;52267;51.984;20.956;2023-05-02T06:57:34;15.68;56.62
65598;SHT31;52267;51.984;20.956;2023-05-02T07:00:01;15.80;55.96
65598;SHT31;52267;51.984;20.956;2023-05-02T07:02:29;15.94;56.63
65598;SHT31;52267;51.984;20.956;2023-05-02T07:04:56;16.03;56.66
65598;SHT31;52267;51.984;20.956;2023-05-02T07:07:23;16.15;55.81
65598;SHT31;52267;51.984;20.956;2023-05-02T07:09:50;16.36;55.90
65598;SHT31;52267;51.984;20.956;2023-05-02T07:12:17;16.58;54.59
65598;SHT31;52267;51.984;20.956;2023-05-02T07:14:44;16.85;53.83
65598;SHT31;52267;51.984;20.956;2023-05-02T07:17:15;17.11;52.71
65598;SHT31;52267;51.984;20.956;2023-05-02T07:19:42;17.43;53.13
65598;SHT31;52267;51.984;20.956;2023-05-02T07:22:09;17.74;51.87
65598;SHT31;52267;51.984;20.956;2023-05-02T07:24:40;17.98;50.61
65598;SHT31;52267;51.984;20.956;2023-05-02T07:27:08;18.27;50.43
65598;SHT31;52267;51.984;20.956;2023-05-02T07:29:36;18.47;49.31
65598;SHT31;52267;51.984;20.956;2023-05-02T07:32:03;18.62;48.97
65598;SHT31;52267;51.984;20.956;2023-05-02T07:34:31;18.76;48.01
65598;SHT31;52267;51.984;20.956;2023-05-02T07:36:58;18.96;47.38
65598;SHT31;52267;51.984;20.956;2023-05-02T07:39:26;19.10;46.84
65598;SHT31;52267;51.984;20.956;2023-05-02T07:41:53;19.26;46.56
65598;SHT31;52267;51.984;20.956;2023-05-02T07:44:21;19.38;46.10
65598;SHT31;52267;51.984;20.956;2023-05-02T07:46:48;19.51;46.08
65598;SHT31;52267;51.984;20.956;2023-05-02T07:49:15;19.63;45.21
65598;SHT31;52267;51.984;20.956;2023-05-02T07:51:42;19.71;45.34
65598;SHT31;52267;51.984;20.956;2023-05-02T07:54:17;19.85;44.97
65598;SHT31;52267;51.984;20.956;2023-05-02T07:56:45;20.00;45.01
65598;SHT31;52267;51.984;20.956;2023-05-02T07:59:13;20.04;44.85
65598;SHT31;52267;51.984;20.956;2023-05-02T08:01:40;20.19;44.97
65598;SHT31;52267;51.984;20.956;2023-05-02T08:07:43;20.67;44.92
65598;SHT31;52267;51.984;20.956;2023-05-02T08:10:10;20.83;45.07
65598;SHT31;52267;51.984;20.956;2023-05-02T08:12:40;21.09;44.79
65598;SHT31;52267;51.984;20.956;2023-05-02T08:15:08;21.25;43.71
65598;SHT31;52267;51.984;20.956;2023-05-02T08:17:41;21.31;43.43
65598;SHT31;52267;51.984;20.956;2023-05-02T08:20:08;21.43;43.75
65598;SHT31;52267;51.984;20.956;2023-05-02T08:22:35;21.51;43.03
65598;SHT31;52267;51.984;20.956;2023-05-02T08:25:02;21.52;42.92
65598;SHT31;52267;51.984;20.956;2023-05-02T08:27:30;21.54;42.75
65598;SHT31;52267;51.984;20.956;2023-05-02T08:29:57;21.53;42.54
65598;SHT31;52267;51.984;20.956;2023-05-02T08:32:24;21.54;42.63
65598;SHT31;52267;51.984;20.956;2023-05-02T08:34:55;21.55;42.63
65598;SHT31;52267;51.984;20.956;2023-05-02T08:37:22;21.59;42.71
65598;SHT31;52267;51.984;20.956;2023-05-02T08:39:49;21.66;42.71
65598;SHT31;52267;51.984;20.956;2023-05-02T08:42:16;21.69;42.38
65598;SHT31;52267;51.984;20.956;2023-05-02T08:44:43;21.80;42.65
65598;SHT31;52267;51.984;20.956;2023-05-02T08:47:10;21.89;42.35
65598;SHT31;52267;51.984;20.956;2023-05-02T08:49:40;22.00;42.31
65598;SHT31;52267;51.984;20.956;2023-05-02T08:52:08;22.09;42.37
65598;SHT31;52267;51.984;20.956;2023-05-02T08:54:39;22.27;42.66
65598;SHT31;52267;51.984;20.956;2023-05-02T08:57:07;22.30;41.74
65598;SHT31;52267;51.984;20.956;2023-05-02T08:59:34;22.24;41.63
65598;SHT31;52267;51.984;20.956;2023-05-02T09:02:07;22.20;41.90
65598;SHT31;52267;51.984;20.956;2023-05-02T09:04:52;22.24;42.15
65598;SHT31;52267;51.984;20.956;2023-05-02T09:07:23;22.42;42.24
65598;SHT31;52267;51.984;20.956;2023-05-02T09:09:50;22.59;41.91
65598;SHT31;52267;51.984;20.956;2023-05-02T09:12:23;22.60;41.17
65598;SHT31;52267;51.984;20.956;2023-05-02T09:15:11;22.54;41.22
65598;SHT31;52267;51.984;20.956;2023-05-02T09:17:42;22.54;41.40
65598;SHT31;52267;51.984;20.956;2023-05-02T09:20:11;22.50;41.55
65598;SHT31;52267;51.984;20.956;2023-05-02T09:22:49;22.49;41.48
65598;SHT31;52267;51.984;20.956;2023-05-02T09:25:18;22.58;41.66
65598;SHT31;52267;51.984;20.956;2023-05-02T09:27:53;22.70;41.45
65598;SHT31;52267;51.984;20.956;2023-05-02T09:30:22;22.86;41.28
65598;SHT31;52267;51.984;20.956;2023-05-02T09:32:52;22.76;41.30
65598;SHT31;52267;51.984;20.956;2023-05-02T09:35:20;22.40;40.92
65598;SHT31;52267;51.984;20.956;2023-05-02T09:37:52;22.36;41.76
65598;SHT31;52267;51.984;20.956;2023-05-02T09:40:22;22.49;41.50
65598;SHT31;52267;51.984;20.956;2023-05-02T09:42:51;22.35;41.84
65598;SHT31;52267;51.984;20.956;2023-05-02T09:45:19;22.31;42.27
65598;SHT31;52267;51.984;20.956;2023-05-02T09:47:48;22.29;42.37
65598;SHT31;52267;51.984;20.956;2023-05-02T09:50:35;22.16;42.32
65598;SHT31;52267;51.984;20.956;2023-05-02T09:53:04;22.04;42.49
65598;SHT31;52267;51.984;20.956;2023-05-02T09:55:35;22.13;42.76
65598;SHT31;52267;51.984;20.956;2023-05-02T09:58:02;22.12;43.07
65598;SHT31;52267;51.984;20.956;2023-05-02T10:00:39;22.11;43.06
65598;SHT31;52267;51.984;20.956;2023-05-02T10:03:09;22.15;42.99
65598;SHT31;52267;51.984;20.956;2023-05-02T10:05:37;22.12;43.11
65598;SHT31;52267;51.984;20.956;2023-05-02T10:08:06;22.11;43.63
65598;SHT31;52267;51.984;20.956;2023-05-02T10:10:36;22.10;43.51
65598;SHT31;52267;51.984;20.956;2023-05-02T10:13:07;21.99;43.53
65598;SHT31;52267;51.984;20.956;2023-05-02T10:15:36;21.98;43.51
65598;SHT31;52267;51.984;20.956;2023-05-02T10:18:13;22.24;43.38
65598;SHT31;52267;51.984;20.956;2023-05-02T10:20:57;22.26;43.31
65598;SHT31;52267;51.984;20.956;2023-05-02T10:23:29;22.28;43.66
65598;SHT31;52267;51.984;20.956;2023-05-02T10:25:56;22.21;43.89
65598;SHT31;52267;51.984;20.956;2023-05-02T10:28:25;22.05;43.95
65598;SHT31;52267;51.984;20.956;2023-05-02T10:30:53;21.85;44.16
65598;SHT31;52267;51.984;20.956;2023-05-02T10:33:21;21.68;44.27
65598;SHT31;52267;51.984;20.956;2023-05-02T10:35:49;21.72;44.46
65598;SHT31;52267;51.984;20.956;2023-05-02T10:38:17;21.78;44.81
65598;SHT31;52267;51.984;20.956;2023-05-02T10:40:51;21.69;44.78
65598;SHT31;52267;51.984;20.956;2023-05-02T10:43:22;21.58;44.80
65598;SHT31;52267;51.984;20.956;2023-05-02T10:45:52;21.39;45.01
65598;SHT31;52267;51.984;20.956;2023-05-02T10:48:21;21.34;45.28
65598;SHT31;52267;51.984;20.956;2023-05-02T10:50:51;21.26;45.44
65598;SHT31;52267;51.984;20.956;2023-05-02T10:53:33;21.30;45.75
65598;SHT31;52267;51.984;20.956;2023-05-02T10:56:18;21.22;45.80
65598;SHT31;52267;51.984;20.956;2023-05-02T10:58:53;21.22;46.16
65598;SHT31;52267;51.984;20.956;2023-05-02T11:01:54;21.14;46.64
65598;SHT31;52267;51.984;20.956;2023-05-02T11:04:23;21.03;46.81
65598;SHT31;52267;51.984;20.956;2023-05-02T11:11:54;20.78;47.52
65598;SHT31;52267;51.984;20.956;2023-05-02T11:24:46;20.03;49.49
65598;SHT31;52267;51.984;20.956;2023-05-02T11:35:30;20.13;50.55
65598;SHT31;52267;51.984;20.956;2023-05-02T11:38:02;20.26;49.89
65598;SHT31;52267;51.984;20.956;2023-05-02T11:40:34;20.36;50.23
65598;SHT31;52267;51.984;20.956;2023-05-02T11:43:10;20.51;49.89
65598;SHT31;52267;51.984;20.956;2023-05-02T11:45:40;20.63;49.70
65598;SHT31;52267;51.984;20.956;2023-05-02T11:48:11;20.50;49.65
65598;SHT31;52267;51.984;20.956;2023-05-02T11:53:14;20.44;50.12
65598;SHT31;52267;51.984;20.956;2023-05-02T11:55:51;20.44;50.32
65598;SHT31;52267;51.984;20.956;2023-05-02T11:58:21;20.42;50.15
65598;SHT31;52267;51.984;20.956;2023-05-02T12:00:55;20.37;50.22
65598;SHT31;52267;51.984;20.956;2023-05-02T12:05:50;20.41;50.43
65598;SHT31;52267;51.984;20.956;2023-05-02T12:08:27;20.37;50.61
65598;SHT31;52267;51.984;20.956;2023-05-02T12:10:55;20.28;50.63
65598;SHT31;52267;51.984;20.956;2023-05-02T12:13:23;20.20;51.12
65598;SHT31;52267;51.984;20.956;2023-05-02T12:15:52;20.14;51.17
65598;SHT31;52267;51.984;20.956;2023-05-02T12:18:21;19.99;50.86
65598;SHT31;52267;51.984;20.956;2023-05-02T12:20:50;19.85;51.20
65598;SHT31;52267;51.984;20.956;2023-05-02T12:23:19;19.82;51.35
65598;SHT31;52267;51.984;20.956;2023-05-02T12:25:49;19.76;51.60
65598;SHT31;52267;51.984;20.956;2023-05-02T12:28:16;19.81;51.58
65598;SHT31;52267;51.984;20.956;2023-05-02T12:30:50;19.85;51.82
65598;SHT31;52267;51.984;20.956;2023-05-02T12:33:17;19.89;51.56
65598;SHT31;52267;51.984;20.956;2023-05-02T12:35:45;19.91;51.73
65598;SHT31;52267;51.984;20.956;2023-05-02T12:38:16;19.95;51.63
65598;SHT31;52267;51.984;20.956;2023-05-02T12:40:50;19.96;51.23
65598;SHT31;52267;51.984;20.956;2023-05-02T12:43:19;19.95;51.27
65598;SHT31;52267;51.984;20.956;2023-05-02T12:45:47;20.14;51.05
65598;SHT31;52267;51.984;20.956;2023-05-02T12:48:22;20.38;50.66
65598;SHT31;52267;51.984;20.956;2023-05-02T12:50:52;20.71;50.06
65598;SHT31;52267;51.984;20.956;2023-05-02T12:53:39;20.89;49.24
65598;SHT31;52267;51.984;20.956;2023-05-02T12:56:09;20.67;49.32
65598;SHT31;52267;51.984;20.956;2023-05-02T12:58:44;20.49;49.63
65598;SHT31;52267;51.984;20.956;2023-05-02T13:01:14;20.40;49.02
65598;SHT31;52267;51.984;20.956;2023-05-02T13:03:42;20.27;48.66
65598;SHT31;52267;51.984;20.956;2023-05-02T13:06:09;20.02;48.32
65598;SHT31;52267;51.984;20.956;2023-05-02T13:08:36;19.94;48.75
65598;SHT31;52267;51.984;20.956;2023-05-02T13:11:04;19.88;48.49
65598;SHT31;52267;51.984;20.956;2023-05-02T13:13:31;19.90;48.87
65598;SHT31;52267;51.984;20.956;2023-05-02T13:15:58;19.90;48.87
65598;SHT31;52267;51.984;20.956;2023-05-02T13:18:25;19.91;49.14
65598;SHT31;52267;51.984;20.956;2023-05-02T13:20:53;19.87;49.08
65598;SHT31;52267;51.984;20.956;2023-05-02T13:23:20;19.87;49.38
65598;SHT31;52267;51.984;20.956;2023-05-02T13:25:47;19.81;49.11
65598;SHT31;52267;51.984;20.956;2023-05-02T13:28:14;19.74;48.95
65598;SHT31;52267;51.984;20.956;2023-05-02T13:30:42;19.73;49.01
65598;SHT31;52267;51.984;20.956;2023-05-02T13:33:09;19.73;49.07
65598;SHT31;52267;51.984;20.956;2023-05-02T13:35:36;19.69;49.11
65598;SHT31;52267;51.984;20.956;2023-05-02T13:38:03;19.67;49.05
65598;SHT31;52267;51.984;20.956;2023-05-02T13:40:30;19.64;48.91
65598;SHT31;52267;51.984;20.956;2023-05-02T13:42:57;19.63;48.90
65598;SHT31;52267;51.984;20.956;2023-05-02T13:45:24;19.60;49.03
65598;SHT31;52267;51.984;20.956;2023-05-02T13:47:51;19.61;49.03
65598;SHT31;52267;51.984;20.956;2023-05-02T13:50:18;19.55;48.85
65598;SHT31;52267;51.984;20.956;2023-05-02T13:52:45;19.52;49.10
65598;SHT31;52267;51.984;20.956;2023-05-02T13:55:12;19.51;49.26
65598;SHT31;52267;51.984;20.956;2023-05-02T13:57:39;19.48;49.28
65598;SHT31;52267;51.984;20.956;2023-05-02T14:00:06;19.45;49.02
65598;SHT31;52267;51.984;20.956;2023-05-02T14:02:35;19.40;48.95
65598;SHT31;52267;51.984;20.956;2023-05-02T14:05:02;19.50;48.99
65598;SHT31;52267;51.984;20.956;2023-05-02T14:07:30;19.52;48.46
65598;SHT31;52267;51.984;20.956;2023-05-02T14:09:57;19.54;48.56
65598;SHT31;52267;51.984;20.956;2023-05-02T14:12:24;19.61;48.29
65598;SHT31;52267;51.984;20.956;2023-05-02T14:14:51;19.62;48.15
65598;SHT31;52267;51.984;20.956;2023-05-02T14:17:18;19.64;47.99
65598;SHT31;52267;51.984;20.956;2023-05-02T14:19:45;19.67;47.92
65598;SHT31;52267;51.984;20.956;2023-05-02T14:22:12;19.64;47.61
65598;SHT31;52267;51.984;20.956;2023-05-02T14:24:39;19.57;47.11
65598;SHT31;52267;51.984;20.956;2023-05-02T14:27:06;19.49;47.48
65598;SHT31;52267;51.984;20.956;2023-05-02T14:29:38;19.46;47.46
65598;SHT31;52267;51.984;20.956;2023-05-02T14:32:05;19.43;47.36
65598;SHT31;52267;51.984;20.956;2023-05-02T14:34:32;19.43;47.72
65598;SHT31;52267;51.984;20.956;2023-05-02T14:36:59;19.41;47.68
65598;SHT31;52267;51.984;20.956;2023-05-02T14:39:27;19.40;47.79
65598;SHT31;52267;51.984;20.956;2023-05-02T14:41:54;19.39;47.87
65598;SHT31;52267;51.984;20.956;2023-05-02T14:44:21;19.36;47.69
65598;SHT31;52267;51.984;20.956;2023-05-02T14:46:48;19.31;47.68
65598;SHT31;52267;51.984;20.956;2023-05-02T14:49:15;19.20;47.54
65598;SHT31;52267;51.984;20.956;2023-05-02T14:51:42;19.12;47.03
65598;SHT31;52267;51.984;20.956;2023-05-02T14:54:12;19.07;47.18
65598;SHT31;52267;51.984;20.956;2023-05-02T14:56:49;19.04;47.22
65598;SHT31;52267;51.984;20.956;2023-05-02T14:59:18;19.02;47.26
65598;SHT31;52267;51.984;20.956;2023-05-02T15:01:45;19.01;47.05
65598;SHT31;52267;51.984;20.956;2023-05-02T15:04:12;19.01;47.27
65598;SHT31;52267;51.984;20.956;2023-05-02T15:06:39;18.98;46.90
65598;SHT31;52267;51.984;20.956;2023-05-02T15:09:06;18.90;46.47
65598;SHT31;52267;51.984;20.956;2023-05-02T15:11:33;18.89;46.81
65598;SHT31;52267;51.984;20.956;2023-05-02T15:14:00;18.89;46.77
65598;SHT31;52267;51.984;20.956;2023-05-02T15:16:27;18.90;46.75
65598;SHT31;52267;51.984;20.956;2023-05-02T15:18:55;18.92;46.73
65598;SHT31;52267;51.984;20.956;2023-05-02T15:21:22;18.94;46.63
65598;SHT31;52267;51.984;20.956;2023-05-02T15:23:49;18.94;46.73
65598;SHT31;52267;51.984;20.956;2023-05-02T15:26:16;18.94;47.06
65598;SHT31;52267;51.984;20.956;2023-05-02T15:28:43;18.93;47.01
65598;SHT31;52267;51.984;20.956;2023-05-02T15:31:10;18.91;46.74
65598;SHT31;52267;51.984;20.956;2023-05-02T15:33:37;18.86;46.90
65598;SHT31;52267;51.984;20.956;2023-05-02T15:36:04;18.82;46.72
65598;SHT31;52267;51.984;20.956;2023-05-02T15:38:31;18.81;47.11
65598;SHT31;52267;51.984;20.956;2023-05-02T15:41:04;18.78;47.39
65598;SHT31;52267;51.984;20.956;2023-05-02T15:43:33;18.72;46.98
65598;SHT31;52267;51.984;20.956;2023-05-02T15:46:00;18.70;47.25
65598;SHT31;52267;51.984;20.956;2023-05-02T15:48:28;18.70;47.39
65598;SHT31;52267;51.984;20.956;2023-05-02T15:51:00;18.69;47.37
65598;SHT31;52267;51.984;20.956;2023-05-02T15:53:28;18.68;47.44
65598;SHT31;52267;51.984;20.956;2023-05-02T15:55:55;18.65;47.37
65598;SHT31;52267;51.984;20.956;2023-05-02T15:58:22;18.60;47.51
65598;SHT31;52267;51.984;20.956;2023-05-02T16:00:49;18.58;47.73
65598;SHT31;52267;51.984;20.956;2023-05-02T16:03:17;18.59;47.86
65598;SHT31;52267;51.984;20.956;2023-05-02T16:05:44;18.57;47.76
65598;SHT31;52267;51.984;20.956;2023-05-02T16:08:12;18.56;48.02
65598;SHT31;52267;51.984;20.956;2023-05-02T16:10:39;18.53;48.38
65598;SHT31;52267;51.984;20.956;2023-05-02T16:13:08;18.52;48.96
65598;SHT31;52267;51.984;20.956;2023-05-02T16:15:36;18.51;48.68
65598;SHT31;52267;51.984;20.956;2023-05-02T16:18:04;18.49;48.63
65598;SHT31;52267;51.984;20.956;2023-05-02T16:20:31;18.46;48.28
65598;SHT31;52267;51.984;20.956;2023-05-02T16:23:02;18.42;48.69
65598;SHT31;52267;51.984;20.956;2023-05-02T16:25:29;18.36;48.87
65598;SHT31;52267;51.984;20.956;2023-05-02T16:27:58;18.31;49.49
65598;SHT31;52267;51.984;20.956;2023-05-02T16:30:25;18.23;49.67